createdAt,value
2018-10-02T00:01:03.386Z,5.37
2018-10-02T00:02:13.333Z,4.62
2018-10-02T00:03:23.130Z,4.70
2018-10-02T00:04:32.924Z,5.00
2018-10-02T00:05:42.484Z,4.60
2018-10-02T00:06:52.331Z,4.22
2018-10-02T00:08:01.879Z,4.95
2018-10-02T00:09:12.986Z,5.05
2018-10-02T00:10:22.701Z,4.45
2018-10-02T00:11:37.796Z,4.65
2018-10-02T00:14:57.594Z,4.47
2018-10-02T00:16:07.264Z,3.40
2018-10-02T00:17:17.148Z,3.35
2018-10-02T00:18:26.875Z,4.37
2018-10-02T00:19:36.465Z,4.37
2018-10-02T00:20:46.175Z,4.20
2018-10-02T00:21:55.976Z,4.15
2018-10-02T00:23:05.715Z,4.72
2018-10-02T00:24:15.321Z,3.98
2018-10-02T00:25:24.880Z,3.62
2018-10-02T00:26:34.313Z,4.25
2018-10-02T00:27:43.831Z,3.83
2018-10-02T00:28:53.358Z,4.22
2018-10-02T00:30:03.117Z,4.22
2018-10-02T00:31:12.778Z,3.90
2018-10-02T00:32:22.923Z,4.80
2018-10-02T00:33:32.650Z,4.28
2018-10-02T00:34:42.253Z,4.17
2018-10-02T00:35:51.635Z,3.75
2018-10-02T00:37:01.462Z,3.85
2018-10-02T00:38:10.928Z,4.40
2018-10-02T00:39:20.622Z,3.15
2018-10-02T00:40:34.040Z,3.83
2018-10-02T00:41:43.658Z,3.52
2018-10-02T00:42:53.397Z,4.65
2018-10-02T00:44:02.922Z,3.37
2018-10-02T00:45:12.494Z,3.42
2018-10-02T00:46:22.088Z,4.50
2018-10-02T00:47:31.959Z,3.83
2018-10-02T00:48:41.574Z,4.15
2018-10-02T00:49:51.185Z,3.83
2018-10-02T00:51:01.010Z,3.85
2018-10-02T00:52:10.645Z,4.25
2018-10-02T00:53:20.416Z,4.67
2018-10-02T00:54:29.876Z,3.87
2018-10-02T00:55:39.653Z,3.90
2018-10-02T00:56:49.337Z,3.47
2018-10-02T00:57:58.992Z,3.67
2018-10-02T00:59:08.744Z,2.98
2018-10-02T01:00:18.345Z,3.75
2018-10-02T01:01:28.049Z,3.40
2018-10-02T01:02:37.589Z,3.77
2018-10-02T01:03:47.386Z,4.40
2018-10-02T01:04:56.942Z,3.70
2018-10-02T01:06:06.803Z,3.67
2018-10-02T01:07:16.720Z,3.67
2018-10-02T01:08:26.584Z,4.28
2018-10-02T01:09:36.824Z,3.62
2018-10-02T01:10:46.961Z,4.12
2018-10-02T01:11:56.981Z,3.85
2018-10-02T01:13:07.787Z,3.85
2018-10-02T01:14:17.945Z,5.20
2018-10-02T01:15:28.604Z,4.35
2018-10-02T01:16:39.090Z,4.17
2018-10-02T01:17:48.852Z,4.35
2018-10-02T01:18:59.020Z,5.28
2018-10-02T01:20:09.765Z,4.80
2018-10-02T01:21:19.795Z,4.75
2018-10-02T01:22:29.844Z,3.75
2018-10-02T01:23:39.887Z,3.80
2018-10-02T01:24:49.894Z,4.05
2018-10-02T01:26:00.195Z,4.15
2018-10-02T01:27:10.149Z,4.80
2018-10-02T01:28:20.594Z,4.10
2018-10-02T01:29:30.599Z,4.80
2018-10-02T01:30:40.699Z,4.70
2018-10-02T01:31:50.566Z,4.47
2018-10-02T01:33:01.037Z,3.95
2018-10-02T01:34:11.359Z,4.20
2018-10-02T01:35:21.425Z,4.58
2018-10-02T01:36:31.875Z,4.17
2018-10-02T01:37:42.134Z,5.22
2018-10-02T01:38:52.487Z,4.05
2018-10-02T01:40:02.425Z,4.47
2018-10-02T01:41:18.814Z,4.58
2018-10-02T01:42:28.585Z,4.37
2018-10-02T01:43:38.148Z,4.42
2018-10-02T01:44:47.885Z,5.10
2018-10-02T01:46:03.314Z,5.12
2018-10-02T01:47:13.003Z,4.25
2018-10-02T01:48:22.729Z,4.35
2018-10-02T01:49:32.265Z,5.42
2018-10-02T01:50:41.992Z,4.55
2018-10-02T01:51:51.692Z,5.00
2018-10-02T01:53:01.420Z,5.40
2018-10-02T01:54:10.916Z,4.90
2018-10-02T01:55:20.700Z,5.35
2018-10-02T01:56:35.918Z,5.20
2018-10-02T01:57:46.230Z,5.95
2018-10-02T01:58:56.355Z,4.72
2018-10-02T02:00:06.218Z,5.62
2018-10-02T02:01:20.297Z,4.47
2018-10-02T02:02:30.376Z,4.30
2018-10-02T02:03:40.709Z,4.83
2018-10-02T02:04:50.726Z,4.62
2018-10-02T02:07:21.379Z,4.97
2018-10-02T02:08:31.401Z,4.20
2018-10-02T02:09:41.497Z,4.17
2018-10-02T02:10:51.495Z,3.40
2018-10-02T02:12:04.501Z,3.98
2018-10-02T02:13:14.809Z,3.58
2018-10-02T02:14:24.833Z,3.50
2018-10-02T02:15:35.077Z,3.60
2018-10-02T02:16:45.027Z,4.22
2018-10-02T02:17:58.945Z,3.87
2018-10-02T02:19:08.940Z,3.58
2018-10-02T02:20:19.000Z,4.05
2018-10-02T02:21:29.157Z,3.80
2018-10-02T02:22:43.008Z,3.90
2018-10-02T02:23:52.745Z,3.58
2018-10-02T02:25:02.733Z,3.42
2018-10-02T02:26:12.826Z,4.12
2018-10-02T02:27:23.085Z,3.65
2018-10-02T02:28:33.444Z,2.92
2018-10-02T02:29:43.632Z,2.95
2018-10-02T02:30:53.767Z,3.50
2018-10-02T02:32:04.003Z,2.65
2018-10-02T02:33:14.111Z,2.58
2018-10-02T02:34:24.081Z,3.15
2018-10-02T02:35:33.891Z,3.52
2018-10-02T02:36:44.278Z,3.30
2018-10-02T02:37:54.529Z,3.33
2018-10-02T02:39:05.282Z,2.35
2018-10-02T02:40:15.276Z,2.70
2018-10-02T02:41:25.536Z,3.08
2018-10-02T02:42:35.737Z,2.45
2018-10-02T02:43:45.553Z,2.17
2018-10-02T02:44:55.718Z,2.35
2018-10-02T02:46:05.910Z,2.00
2018-10-02T02:47:21.204Z,1.50
2018-10-02T02:48:36.421Z,2.35
2018-10-02T02:49:51.366Z,1.47
2018-10-02T02:51:06.434Z,2.05
2018-10-02T02:52:17.785Z,2.67
2018-10-02T02:53:27.373Z,1.80
2018-10-02T02:54:37.051Z,1.85
2018-10-02T02:55:47.406Z,2.02
2018-10-02T02:56:57.243Z,1.60
2018-10-02T02:58:06.815Z,1.95
2018-10-02T02:59:16.444Z,2.42
2018-10-02T03:00:25.872Z,2.00
2018-10-02T03:01:35.673Z,1.80
2018-10-02T03:02:45.206Z,2.00
2018-10-02T03:03:54.960Z,2.25
2018-10-02T03:05:04.790Z,2.42
2018-10-02T03:06:14.602Z,2.40
2018-10-02T03:07:24.387Z,2.27
2018-10-02T03:08:33.827Z,2.40
2018-10-02T03:09:43.488Z,2.10
2018-10-02T03:10:53.179Z,3.02
2018-10-02T03:12:02.725Z,2.58
2018-10-02T03:13:12.545Z,2.62
2018-10-02T03:14:22.248Z,2.92
2018-10-02T03:15:31.728Z,2.87
2018-10-02T03:16:41.308Z,3.17
2018-10-02T03:17:51.040Z,2.70
2018-10-02T03:19:00.779Z,2.62
2018-10-02T03:20:10.322Z,1.75
2018-10-02T03:21:19.892Z,3.00
2018-10-02T03:22:29.509Z,3.05
2018-10-02T03:23:39.305Z,3.27
2018-10-02T03:24:48.676Z,3.12
2018-10-02T03:25:58.452Z,2.70
2018-10-02T03:27:08.235Z,2.62
2018-10-02T03:28:17.985Z,2.95
2018-10-02T03:29:27.761Z,2.83
2018-10-02T03:30:37.508Z,3.27
2018-10-02T03:31:47.112Z,3.17
2018-10-02T03:32:56.651Z,3.45
2018-10-02T03:34:06.214Z,3.00
2018-10-02T03:35:15.781Z,3.05
2018-10-02T03:36:25.513Z,3.45
2018-10-02T03:37:35.133Z,3.30
2018-10-02T03:38:44.798Z,2.95
2018-10-02T03:39:54.553Z,2.55
2018-10-02T03:41:04.135Z,3.77
2018-10-02T03:42:13.659Z,3.00
2018-10-02T03:43:27.101Z,3.20
2018-10-02T03:44:36.637Z,3.33
2018-10-02T03:45:46.395Z,2.80
2018-10-02T03:46:56.090Z,3.80
2018-10-02T03:48:05.680Z,3.37
2018-10-02T03:49:15.426Z,3.72
2018-10-02T03:50:25.117Z,3.27
2018-10-02T03:51:34.960Z,3.85
2018-10-02T03:52:44.684Z,3.72
2018-10-02T03:53:54.442Z,3.80
2018-10-02T03:55:04.169Z,3.80
2018-10-02T03:56:13.786Z,2.70
2018-10-02T03:57:23.509Z,3.70
2018-10-02T03:58:33.172Z,3.62
2018-10-02T03:59:42.769Z,3.67
2018-10-02T04:00:52.441Z,4.70
2018-10-02T04:02:02.085Z,4.08
2018-10-02T04:03:11.617Z,4.40
2018-10-02T04:04:21.098Z,3.87
2018-10-02T04:05:30.927Z,4.60
2018-10-02T04:06:40.477Z,3.62
2018-10-02T04:07:50.224Z,3.85
2018-10-02T04:08:59.704Z,3.65
2018-10-02T04:10:09.346Z,4.37
2018-10-02T04:11:19.260Z,4.55
2018-10-02T04:12:29.126Z,4.25
2018-10-02T04:13:38.753Z,3.92
2018-10-02T04:14:48.334Z,4.20
2018-10-02T04:15:57.772Z,4.30
2018-10-02T04:17:07.435Z,3.42
2018-10-02T04:18:17.127Z,4.30
2018-10-02T04:19:26.893Z,3.85
2018-10-02T04:20:36.376Z,4.25
2018-10-02T04:21:46.181Z,3.80
2018-10-02T04:22:55.820Z,4.22
2018-10-02T04:24:07.192Z,3.62
2018-10-02T04:25:17.002Z,5.00
2018-10-02T04:26:32.582Z,3.37
2018-10-02T04:27:42.078Z,4.03
2018-10-02T04:28:51.842Z,4.50
2018-10-02T04:30:01.371Z,4.00
2018-10-02T04:31:10.932Z,3.90
2018-10-02T04:32:23.924Z,4.78
2018-10-02T04:33:33.598Z,3.83
2018-10-02T04:34:43.400Z,3.98
2018-10-02T04:35:53.028Z,4.25
2018-10-02T04:37:08.337Z,4.45
2018-10-02T04:38:18.041Z,4.08
2018-10-02T04:39:28.058Z,4.00
2018-10-02T04:40:44.309Z,3.10
2018-10-02T04:41:57.336Z,3.80
2018-10-02T04:43:07.069Z,3.67
2018-10-02T04:44:16.737Z,3.90
2018-10-02T04:45:26.303Z,4.45
2018-10-02T04:46:36.063Z,3.90
2018-10-02T04:47:52.748Z,5.10
2018-10-02T04:49:02.290Z,3.67
2018-10-02T04:50:11.983Z,4.00
2018-10-02T04:51:21.768Z,4.17
2018-10-02T04:52:31.371Z,3.80
2018-10-02T04:53:41.174Z,5.03
2018-10-02T04:54:50.914Z,3.70
2018-10-02T04:56:00.469Z,3.05
2018-10-02T04:57:10.075Z,3.75
2018-10-02T04:58:23.517Z,4.45
2018-10-02T04:59:33.166Z,5.17
2018-10-02T05:00:42.760Z,4.40
2018-10-02T05:01:52.300Z,4.28
2018-10-02T05:03:11.522Z,5.00
2018-10-02T05:04:21.280Z,4.80
2018-10-02T05:05:30.985Z,4.17
2018-10-02T05:06:40.773Z,3.77
2018-10-02T05:07:50.502Z,4.22
2018-10-02T05:09:00.161Z,4.12
2018-10-02T05:10:10.036Z,4.83
2018-10-02T05:11:20.280Z,5.00
2018-10-02T05:12:29.899Z,4.45
2018-10-02T05:13:39.664Z,4.60
2018-10-02T05:14:49.210Z,4.90
2018-10-02T05:15:58.889Z,4.95
2018-10-02T05:17:08.452Z,4.22
2018-10-02T05:18:18.238Z,4.40
2018-10-02T05:19:28.013Z,4.10
2018-10-02T05:20:38.019Z,4.08
2018-10-02T05:21:47.564Z,4.90
2018-10-02T05:22:57.127Z,3.72
2018-10-02T05:24:06.967Z,3.85
2018-10-02T05:25:16.638Z,4.12
2018-10-02T05:26:26.434Z,4.28
2018-10-02T05:27:36.125Z,3.95
2018-10-02T05:28:45.699Z,4.30
2018-10-02T05:29:55.394Z,3.80
2018-10-02T05:31:04.890Z,4.30
2018-10-02T05:32:14.693Z,4.42
2018-10-02T05:33:24.496Z,4.72
2018-10-02T05:34:34.214Z,4.42
2018-10-02T05:35:43.895Z,3.92
2018-10-02T05:36:53.545Z,3.40
2018-10-02T05:38:03.144Z,4.30
2018-10-02T05:39:12.956Z,4.10
2018-10-02T05:40:22.603Z,3.62
2018-10-02T05:41:32.367Z,3.77
2018-10-02T05:42:42.400Z,3.92
2018-10-02T05:43:51.848Z,3.17
2018-10-02T05:45:01.449Z,3.70
2018-10-02T05:46:11.112Z,4.28
2018-10-02T05:47:20.697Z,4.00
2018-10-02T05:48:30.312Z,4.47
2018-10-02T05:49:39.958Z,4.85
2018-10-02T05:50:49.819Z,4.42
2018-10-02T05:51:59.413Z,4.65
2018-10-02T05:53:09.067Z,4.10
2018-10-02T05:54:18.798Z,3.60
2018-10-02T05:55:28.374Z,4.28
2018-10-02T05:56:38.023Z,3.98
2018-10-02T05:57:47.509Z,4.15
2018-10-02T05:58:57.051Z,4.12
2018-10-02T06:00:06.840Z,3.75
2018-10-02T06:01:16.612Z,4.10
2018-10-02T06:02:35.118Z,4.30
2018-10-02T06:03:45.481Z,4.58
2018-10-02T06:04:55.181Z,4.53
2018-10-02T06:06:04.754Z,4.47
2018-10-02T06:07:14.358Z,4.50
2018-10-02T06:08:24.010Z,3.83
2018-10-02T06:09:33.504Z,4.65
2018-10-02T06:10:43.334Z,5.50
2018-10-02T06:11:53.140Z,4.17
2018-10-02T06:13:02.950Z,4.28
2018-10-02T06:14:12.723Z,4.60
2018-10-02T06:15:22.549Z,3.80
2018-10-02T06:16:32.475Z,4.22
2018-10-02T06:17:42.261Z,6.42
2018-10-02T06:18:55.919Z,4.28
2018-10-02T06:20:05.617Z,3.80
2018-10-02T06:21:15.305Z,4.70
2018-10-02T06:22:24.993Z,5.05
2018-10-02T06:23:34.928Z,3.77
2018-10-02T06:24:44.655Z,5.20
2018-10-02T06:25:54.297Z,4.50
2018-10-02T06:27:04.009Z,4.67
2018-10-02T06:28:13.535Z,4.75
2018-10-02T06:29:23.126Z,4.83
2018-10-02T06:30:32.675Z,4.58
2018-10-02T06:31:42.419Z,4.28
2018-10-02T06:32:52.226Z,5.12
2018-10-02T06:34:01.954Z,4.30
2018-10-02T06:35:11.555Z,5.53
2018-10-02T06:36:21.077Z,4.92
2018-10-02T06:37:30.841Z,4.55
2018-10-02T06:38:40.604Z,4.15
2018-10-02T06:39:50.414Z,4.70
2018-10-02T06:41:00.219Z,3.67
2018-10-02T06:42:09.617Z,4.53
2018-10-02T06:43:19.500Z,4.92
2018-10-02T06:44:29.861Z,4.22
2018-10-02T06:45:39.484Z,4.42
2018-10-02T06:46:49.178Z,4.90
2018-10-02T06:47:58.749Z,4.80
2018-10-02T06:49:08.441Z,5.15
2018-10-02T06:50:17.990Z,5.40
2018-10-02T06:51:27.598Z,5.08
2018-10-02T06:52:37.538Z,5.50
2018-10-02T06:53:46.827Z,6.00
2018-10-02T06:54:56.586Z,4.70
2018-10-02T06:56:06.545Z,6.03
2018-10-02T06:57:16.142Z,4.45
2018-10-02T06:58:25.739Z,5.15
2018-10-02T06:59:35.416Z,4.72
2018-10-02T07:00:45.127Z,4.95
2018-10-02T07:01:54.745Z,4.10
2018-10-02T07:03:04.561Z,5.20
2018-10-02T07:04:14.279Z,5.42
2018-10-02T07:05:24.783Z,7.20
2018-10-02T07:06:34.664Z,5.22
2018-10-02T07:07:44.297Z,6.05
2018-10-02T07:08:53.864Z,6.42
2018-10-02T07:10:03.790Z,5.67
2018-10-02T07:11:13.418Z,5.00
2018-10-02T07:12:23.364Z,4.95
2018-10-02T07:13:33.058Z,5.40
2018-10-02T07:14:42.798Z,5.47
2018-10-02T07:15:52.435Z,6.10
2018-10-02T07:17:02.166Z,6.95
2018-10-02T07:18:11.765Z,5.30
2018-10-02T07:19:21.268Z,5.65
2018-10-02T07:20:30.933Z,5.95
2018-10-02T07:21:40.722Z,5.83
2018-10-02T07:22:50.474Z,5.92
2018-10-02T07:24:03.826Z,5.60
2018-10-02T07:25:13.696Z,5.92
2018-10-02T07:26:23.515Z,7.67
2018-10-02T07:27:33.247Z,5.90
2018-10-02T07:28:42.752Z,5.72
2018-10-02T07:29:52.563Z,6.42
2018-10-02T07:31:02.272Z,5.85
2018-10-02T07:32:12.078Z,6.17
2018-10-02T07:33:21.726Z,6.60
2018-10-02T07:34:31.481Z,6.70
2018-10-02T07:35:41.225Z,7.37
2018-10-02T07:36:51.404Z,6.80
2018-10-02T07:38:01.227Z,6.17
2018-10-02T07:39:11.157Z,5.85
2018-10-02T07:40:21.005Z,7.10
2018-10-02T07:41:30.847Z,5.53
2018-10-02T07:42:40.652Z,5.15
2018-10-02T07:43:50.618Z,5.10
2018-10-02T07:45:00.355Z,4.75
2018-10-02T07:46:09.968Z,5.25
2018-10-02T07:47:19.814Z,5.75
2018-10-02T07:48:29.704Z,5.08
2018-10-02T07:49:39.305Z,4.55
2018-10-02T07:50:49.099Z,5.37
2018-10-02T07:51:58.588Z,5.85
2018-10-02T07:53:08.296Z,6.35
2018-10-02T07:54:18.220Z,5.58
2018-10-02T07:55:28.263Z,6.55
2018-10-02T07:56:37.898Z,5.85
2018-10-02T07:57:47.895Z,5.58
2018-10-02T07:58:57.626Z,5.50
2018-10-02T08:00:07.450Z,6.25
2018-10-02T08:01:17.157Z,5.97
2018-10-02T08:02:26.892Z,5.28
2018-10-02T08:03:36.638Z,6.03
2018-10-02T08:04:46.178Z,6.00
2018-10-02T08:05:56.041Z,5.62
2018-10-02T08:07:05.714Z,6.40
2018-10-02T08:08:15.386Z,4.78
2018-10-02T08:09:25.222Z,5.45
2018-10-02T08:10:34.997Z,5.00
2018-10-02T08:11:44.776Z,5.45
2018-10-02T08:12:54.374Z,5.55
2018-10-02T08:14:04.031Z,5.58
2018-10-02T08:15:13.871Z,5.58
2018-10-02T08:16:23.563Z,5.80
2018-10-02T08:17:33.262Z,5.30
2018-10-02T08:18:43.026Z,6.33
2018-10-02T08:19:52.564Z,5.58
2018-10-02T08:21:02.149Z,4.97
2018-10-02T08:22:11.950Z,5.80
2018-10-02T08:23:21.831Z,5.20
2018-10-02T08:24:31.720Z,5.58
2018-10-02T08:25:47.384Z,5.92
2018-10-02T08:26:56.940Z,4.85
2018-10-02T08:28:06.409Z,5.83
2018-10-02T08:29:16.062Z,5.10
2018-10-02T08:30:25.815Z,5.12
2018-10-02T08:31:35.302Z,5.30
2018-10-02T08:32:48.248Z,6.25
2018-10-02T08:33:57.955Z,4.90
2018-10-02T08:35:07.715Z,4.20
2018-10-02T08:36:17.336Z,5.87
2018-10-02T08:37:27.038Z,5.42
2018-10-02T08:38:36.828Z,5.05
2018-10-02T08:39:46.469Z,5.12
2018-10-02T08:40:56.017Z,5.40
2018-10-02T08:42:05.693Z,5.30
2018-10-02T08:43:15.369Z,4.40
2018-10-02T08:44:25.420Z,4.55
2018-10-02T08:45:35.325Z,4.22
2018-10-02T08:46:45.328Z,4.90
2018-10-02T08:47:54.937Z,4.65
2018-10-02T08:49:04.465Z,5.25
2018-10-02T08:50:13.935Z,4.72
2018-10-02T08:51:23.477Z,4.20
2018-10-02T08:52:33.131Z,4.85
2018-10-02T08:53:43.078Z,4.97
2018-10-02T08:54:52.544Z,4.30
2018-10-02T08:56:02.433Z,4.95
2018-10-02T08:57:12.197Z,3.10
2018-10-02T08:58:21.709Z,4.85
2018-10-02T08:59:31.666Z,4.37
2018-10-02T09:00:41.389Z,4.08
2018-10-02T09:01:50.975Z,4.55
2018-10-02T09:03:00.889Z,3.37
2018-10-02T09:04:10.537Z,3.90
2018-10-02T09:05:20.279Z,4.00
2018-10-02T09:06:30.084Z,3.80
2018-10-02T09:07:39.790Z,3.95
2018-10-02T09:08:49.303Z,4.15
2018-10-02T09:09:59.052Z,4.20
2018-10-02T09:11:08.898Z,3.67
2018-10-02T09:12:18.573Z,4.08
2018-10-02T09:13:28.566Z,2.95
2018-10-02T09:14:38.284Z,2.90
2018-10-02T09:15:47.895Z,3.33
2018-10-02T09:16:57.410Z,3.15
2018-10-02T09:18:07.040Z,2.80
2018-10-02T09:19:16.620Z,2.55
2018-10-02T09:20:26.291Z,3.95
2018-10-02T09:21:42.740Z,3.20
2018-10-02T09:22:52.455Z,3.58
2018-10-02T09:24:02.219Z,2.70
2018-10-02T09:25:12.009Z,2.60
2018-10-02T09:26:21.726Z,3.50
2018-10-02T09:27:31.627Z,2.65
2018-10-02T09:28:41.647Z,2.33
2018-10-02T09:29:56.485Z,3.40
2018-10-02T09:31:11.572Z,2.90
2018-10-02T09:32:30.438Z,3.25
2018-10-02T09:33:45.689Z,2.80
2018-10-02T09:35:00.680Z,3.08
2018-10-02T09:36:15.649Z,3.02
2018-10-02T09:37:30.571Z,2.45
2018-10-02T09:38:45.605Z,3.10
2018-10-02T09:40:00.612Z,2.90
2018-10-02T09:41:15.774Z,3.27
2018-10-02T09:42:30.822Z,3.67
2018-10-02T09:43:57.314Z,3.05
2018-10-02T09:45:06.903Z,2.62
2018-10-02T09:46:16.818Z,2.62
2018-10-02T09:47:26.410Z,2.83
2018-10-02T09:48:36.101Z,2.33
2018-10-02T09:49:45.862Z,1.90
2018-10-02T09:50:55.391Z,2.12
2018-10-02T09:52:04.821Z,2.90
2018-10-02T09:53:14.906Z,1.82
2018-10-02T09:54:24.601Z,2.55
2018-10-02T09:55:34.555Z,2.25
2018-10-02T09:56:45.363Z,1.92
2018-10-02T09:57:55.050Z,1.72
2018-10-02T09:59:04.583Z,2.00
2018-10-02T10:01:30.361Z,1.85
2018-10-02T10:02:40.267Z,1.45
2018-10-02T10:03:49.748Z,1.90
2018-10-02T10:04:59.438Z,2.20
2018-10-02T10:06:12.561Z,2.08
2018-10-02T10:07:22.261Z,1.77
2018-10-02T10:08:31.845Z,1.40
2018-10-02T10:09:41.640Z,1.98
2018-10-02T10:10:56.886Z,1.47
2018-10-02T10:12:06.669Z,1.55
2018-10-02T10:13:17.070Z,1.60
2018-10-02T10:14:26.691Z,1.62
2018-10-02T10:15:36.370Z,2.05
2018-10-02T10:16:46.097Z,2.12
2018-10-02T10:17:55.670Z,1.65
2018-10-02T10:19:05.642Z,1.62
2018-10-02T10:20:15.229Z,1.75
2018-10-02T10:21:24.833Z,2.40
2018-10-02T10:22:34.740Z,2.05
2018-10-02T10:23:44.490Z,1.50
2018-10-02T10:24:54.301Z,1.87
2018-10-02T10:26:04.086Z,1.75
2018-10-02T10:27:13.827Z,1.87
2018-10-02T10:28:23.635Z,1.55
2018-10-02T10:29:33.278Z,1.82
2018-10-02T10:30:42.938Z,1.85
2018-10-02T10:31:52.750Z,1.98
2018-10-02T10:33:02.419Z,1.70
2018-10-02T10:34:12.227Z,1.92
2018-10-02T10:35:22.132Z,2.30
2018-10-02T10:36:31.682Z,1.57
2018-10-02T10:37:41.521Z,1.27
2018-10-02T10:38:51.203Z,1.40
2018-10-02T10:40:00.951Z,1.30
2018-10-02T10:41:10.596Z,1.67
2018-10-02T10:42:20.360Z,1.52
2018-10-02T10:43:30.033Z,1.30
2018-10-02T10:44:39.649Z,1.62
2018-10-02T10:45:49.674Z,2.10
2018-10-02T10:46:59.590Z,3.22
2018-10-02T10:48:09.200Z,2.30
2018-10-02T10:49:18.642Z,1.50
2018-10-02T10:50:28.321Z,1.80
2018-10-02T10:51:37.858Z,1.67
2018-10-02T10:52:47.614Z,2.30
2018-10-02T10:53:57.215Z,1.50
2018-10-02T10:55:22.520Z,1.82
2018-10-02T10:56:32.219Z,1.70
2018-10-02T10:57:41.915Z,1.60
2018-10-02T10:58:51.817Z,1.70
2018-10-02T11:00:01.571Z,2.30
2018-10-02T11:01:11.075Z,1.90
2018-10-02T11:02:20.910Z,2.70
2018-10-02T11:03:30.366Z,2.15
2018-10-02T11:04:39.888Z,2.90
2018-10-02T11:05:49.554Z,1.87
2018-10-02T11:06:59.217Z,1.72
2018-10-02T11:08:08.759Z,2.42
2018-10-02T11:09:18.510Z,1.80
2018-10-02T11:10:28.333Z,1.90
2018-10-02T11:11:38.285Z,1.85
2018-10-02T11:12:48.485Z,2.20
2018-10-02T11:13:58.151Z,1.95
2018-10-02T11:15:07.931Z,1.90
2018-10-02T11:16:17.484Z,1.87
2018-10-02T11:17:26.995Z,1.87
2018-10-02T11:18:36.579Z,2.15
2018-10-02T11:19:46.220Z,2.27
2018-10-02T11:20:55.813Z,2.05
2018-10-02T11:22:05.692Z,1.98
2018-10-02T11:23:18.997Z,2.02
2018-10-02T11:24:28.674Z,1.82
2018-10-02T11:25:38.401Z,2.20
2018-10-02T11:26:47.993Z,2.08
2018-10-02T11:27:57.560Z,1.80
2018-10-02T11:29:11.182Z,2.00
2018-10-02T11:30:20.821Z,1.62
2018-10-02T11:31:30.566Z,2.50
2018-10-02T11:32:40.526Z,2.10
2018-10-02T11:33:50.159Z,1.67
2018-10-02T11:34:59.937Z,2.08
2018-10-02T11:36:13.594Z,2.30
2018-10-02T11:37:23.630Z,1.70
2018-10-02T11:38:33.377Z,1.52
2018-10-02T11:39:42.915Z,1.30
2018-10-02T11:40:52.800Z,1.55
2018-10-02T11:42:02.678Z,1.72
2018-10-02T11:43:12.401Z,2.05
2018-10-02T11:44:22.359Z,1.47
2018-10-02T11:45:32.216Z,1.45
2018-10-02T11:46:41.746Z,2.05
2018-10-02T11:47:51.457Z,2.40
2018-10-02T11:49:01.073Z,2.00
2018-10-02T11:50:10.720Z,2.17
2018-10-02T11:51:20.422Z,1.80
2018-10-02T11:52:30.314Z,1.85
2018-10-02T11:53:39.701Z,2.00
2018-10-02T11:54:49.335Z,2.00
2018-10-02T11:55:59.055Z,1.65
2018-10-02T11:57:08.608Z,1.70
2018-10-02T11:58:18.481Z,1.70
2018-10-02T11:59:27.951Z,1.70
2018-10-02T12:00:37.760Z,2.20
2018-10-02T12:01:47.355Z,1.95
2018-10-02T12:02:57.098Z,2.40
2018-10-02T12:04:06.934Z,2.70
2018-10-02T12:05:16.636Z,2.02
2018-10-02T12:06:26.389Z,2.10
2018-10-02T12:07:36.060Z,1.50
2018-10-02T12:08:45.526Z,2.05
2018-10-02T12:09:55.086Z,3.08
2018-10-02T12:11:04.875Z,2.42
2018-10-02T12:12:14.538Z,1.90
2018-10-02T12:13:24.371Z,2.45
2018-10-02T12:14:33.990Z,1.90
2018-10-02T12:15:43.785Z,2.40
2018-10-02T12:16:53.563Z,1.90
2018-10-02T12:18:03.164Z,2.05
2018-10-02T12:19:13.023Z,2.00
2018-10-02T12:20:22.841Z,1.98
2018-10-02T12:21:32.513Z,1.82
2018-10-02T12:22:42.155Z,2.35
2018-10-02T12:23:51.894Z,2.05
2018-10-02T12:25:01.636Z,2.00
2018-10-02T12:26:11.430Z,1.70
2018-10-02T12:27:21.312Z,1.70
2018-10-02T12:28:31.012Z,1.80
2018-10-02T12:29:40.635Z,1.50
2018-10-02T12:30:50.254Z,2.40
2018-10-02T12:32:00.003Z,1.52
2018-10-02T12:33:09.745Z,1.90
2018-10-02T12:34:19.383Z,1.90
2018-10-02T12:35:29.310Z,1.80
2018-10-02T12:36:39.283Z,1.90
2018-10-02T12:37:48.908Z,2.10
2018-10-02T12:38:58.730Z,2.20
2018-10-02T12:40:08.420Z,1.90
2018-10-02T12:41:18.001Z,1.57
2018-10-02T12:42:27.782Z,1.55
2018-10-02T12:43:37.529Z,1.40
2018-10-02T12:44:47.215Z,1.40
2018-10-02T12:45:56.940Z,1.60
2018-10-02T12:47:06.745Z,1.40
2018-10-02T12:48:16.567Z,2.58
2018-10-02T12:49:26.237Z,2.27
2018-10-02T12:50:36.003Z,1.62
2018-10-02T12:51:45.733Z,1.60
2018-10-02T12:52:55.249Z,1.57
2018-10-02T12:54:08.570Z,1.90
2018-10-02T12:55:18.120Z,2.45
2018-10-02T12:56:28.000Z,1.72
2018-10-02T12:57:37.755Z,1.67
2018-10-02T12:58:47.209Z,1.90
2018-10-02T12:59:56.767Z,1.60
2018-10-02T13:01:06.534Z,2.20
2018-10-02T13:02:16.207Z,1.47
2018-10-02T13:03:26.019Z,2.20
2018-10-02T13:04:39.343Z,1.72
2018-10-02T13:05:49.037Z,1.67
2018-10-02T13:06:58.767Z,1.55
2018-10-02T13:08:08.381Z,1.80
2018-10-02T13:09:18.028Z,2.15
2018-10-02T13:10:27.709Z,2.25
2018-10-02T13:11:37.474Z,1.77
2018-10-02T13:12:46.954Z,2.00
2018-10-02T13:13:56.593Z,2.00
2018-10-02T13:15:06.502Z,1.95
2018-10-02T13:16:15.990Z,2.15
2018-10-02T13:17:29.171Z,2.12
2018-10-02T13:18:38.642Z,1.72
2018-10-02T13:19:48.306Z,1.65
2018-10-02T13:20:57.858Z,1.65
2018-10-02T13:22:07.585Z,1.45
2018-10-02T13:23:17.268Z,2.08
2018-10-02T13:24:26.945Z,2.10
2018-10-02T13:25:36.729Z,2.90
2018-10-02T13:26:46.350Z,2.30
2018-10-02T13:28:01.515Z,1.95
2018-10-02T13:29:10.994Z,2.15
2018-10-02T13:30:20.772Z,1.95
2018-10-02T13:31:30.582Z,2.22
2018-10-02T13:32:44.025Z,1.92
2018-10-02T13:33:53.818Z,2.05
2018-10-02T13:35:03.642Z,1.67
2018-10-02T13:36:13.144Z,2.02
2018-10-02T13:37:22.977Z,3.17
2018-10-02T13:38:33.022Z,2.08
2018-10-02T13:39:42.853Z,2.00
2018-10-02T13:40:52.431Z,2.17
2018-10-02T13:42:02.132Z,2.20
2018-10-02T13:43:11.952Z,1.80
2018-10-02T13:44:21.801Z,2.30
2018-10-02T13:45:31.542Z,1.62
2018-10-02T13:46:41.169Z,2.10
2018-10-02T13:47:50.811Z,2.35
2018-10-02T13:49:00.575Z,2.00
2018-10-02T13:50:10.314Z,1.40
2018-10-02T13:51:20.079Z,1.75
2018-10-02T13:52:29.777Z,1.90
2018-10-02T13:53:39.354Z,1.90
2018-10-02T13:54:48.877Z,2.37
2018-10-02T13:55:58.673Z,1.92
2018-10-02T13:57:08.152Z,1.98
2018-10-02T13:58:17.738Z,2.72
2018-10-02T13:59:27.627Z,2.10
2018-10-02T14:00:37.312Z,2.42
2018-10-02T14:01:46.918Z,2.27
2018-10-02T14:02:56.605Z,1.90
2018-10-02T14:04:06.586Z,2.22
2018-10-02T14:05:16.118Z,2.10
2018-10-02T14:06:25.895Z,2.12
2018-10-02T14:07:35.404Z,2.10
2018-10-02T14:08:44.997Z,2.20
2018-10-02T14:09:54.866Z,2.37
2018-10-02T14:11:04.519Z,2.25
2018-10-02T14:12:14.236Z,2.20
2018-10-02T14:13:23.781Z,1.98
2018-10-02T14:14:33.386Z,1.98
2018-10-02T14:15:43.154Z,2.12
2018-10-02T14:16:52.742Z,1.98
2018-10-02T14:18:02.619Z,2.10
2018-10-02T14:19:12.187Z,1.67
2018-10-02T14:20:21.968Z,2.17
2018-10-02T14:21:31.607Z,1.90
2018-10-02T14:22:41.282Z,1.60
2018-10-02T14:23:51.169Z,2.02
2018-10-02T14:25:00.887Z,2.10
2018-10-02T14:26:10.499Z,1.72
2018-10-02T14:27:20.057Z,2.30
2018-10-02T14:28:29.618Z,1.80
2018-10-02T14:29:39.354Z,1.92
2018-10-02T14:30:49.233Z,1.55
2018-10-02T14:31:59.235Z,1.95
2018-10-02T14:33:14.158Z,1.80
2018-10-02T14:34:23.827Z,2.15
2018-10-02T14:35:33.675Z,1.85
2018-10-02T14:36:43.349Z,2.02
2018-10-02T14:37:53.071Z,2.15
2018-10-02T14:39:03.194Z,2.00
2018-10-02T14:40:12.831Z,1.80
2018-10-02T14:41:22.565Z,2.37
2018-10-02T14:42:32.397Z,2.45
2018-10-02T14:43:42.152Z,1.90
2018-10-02T14:44:52.004Z,1.98
2018-10-02T14:46:01.577Z,2.70
2018-10-02T14:47:11.418Z,1.70
2018-10-02T14:48:21.120Z,3.60
2018-10-02T14:49:30.949Z,2.08
2018-10-02T14:50:40.513Z,1.72
2018-10-02T14:51:50.072Z,2.05
2018-10-02T14:53:00.145Z,2.05
2018-10-02T14:54:09.896Z,1.62
2018-10-02T14:55:19.461Z,1.80
2018-10-02T14:56:29.312Z,1.95
2018-10-02T14:57:38.942Z,2.37
2018-10-02T14:58:48.738Z,3.30
2018-10-02T14:59:58.492Z,2.25
2018-10-02T15:01:08.428Z,2.08
2018-10-02T15:02:18.097Z,2.27
2018-10-02T15:03:27.986Z,2.25
2018-10-02T15:04:37.821Z,1.98
2018-10-02T15:05:47.595Z,2.40
2018-10-02T15:06:57.159Z,2.35
2018-10-02T15:08:07.073Z,2.35
2018-10-02T15:09:16.918Z,2.22
2018-10-02T15:10:26.912Z,2.55
2018-10-02T15:11:36.794Z,2.50
2018-10-02T15:12:46.313Z,1.60
2018-10-02T15:13:56.022Z,3.10
2018-10-02T15:15:06.152Z,2.35
2018-10-02T15:16:15.866Z,2.52
2018-10-02T15:17:25.587Z,2.00
2018-10-02T15:18:35.393Z,2.15
2018-10-02T15:19:44.985Z,2.15
2018-10-02T15:20:54.738Z,2.27
2018-10-02T15:22:04.310Z,2.62
2018-10-02T15:23:13.889Z,2.50
2018-10-02T15:24:23.657Z,2.15
2018-10-02T15:25:33.145Z,2.02
2018-10-02T15:26:42.718Z,2.70
2018-10-02T15:27:52.399Z,2.15
2018-10-02T15:29:02.156Z,2.62
2018-10-02T15:30:11.942Z,1.87
2018-10-02T15:31:21.697Z,1.90
2018-10-02T15:32:31.082Z,2.40
2018-10-02T15:33:40.627Z,2.12
2018-10-02T15:34:50.025Z,2.12
2018-10-02T15:35:59.677Z,2.15
2018-10-02T15:37:09.670Z,2.10
2018-10-02T15:38:24.505Z,2.35